createdAt,value
2022-10-13T00:02:26.914Z,25.90
2022-10-13T00:05:31.989Z,25.25
2022-10-13T00:08:36.286Z,35.83
2022-10-13T00:11:40.033Z,28.02
2022-10-13T00:14:43.434Z,24.70
2022-10-13T00:17:47.098Z,23.35
2022-10-13T00:20:51.570Z,28.52
2022-10-13T00:23:55.124Z,36.83
2022-10-13T00:26:58.109Z,24.30
2022-10-13T00:30:03.085Z,24.55
2022-10-13T00:33:06.858Z,25.42
2022-10-13T00:36:10.202Z,27.63
2022-10-13T00:39:13.403Z,27.15
2022-10-13T00:42:18.197Z,29.80
2022-10-13T00:45:25.677Z,37.65
2022-10-13T00:48:31.981Z,34.90
2022-10-13T00:51:49.755Z,34.30
2022-10-13T00:54:56.078Z,24.63
2022-10-13T00:58:05.709Z,30.27
2022-10-13T01:01:10.004Z,30.63
2022-10-13T01:04:13.572Z,28.58
2022-10-13T01:07:20.321Z,25.77
2022-10-13T01:10:36.056Z,34.30
2022-10-13T01:13:48.970Z,36.05
2022-10-13T01:17:17.284Z,31.48
2022-10-13T01:20:41.397Z,37.20
2022-10-13T01:23:57.046Z,42.05
2022-10-13T01:27:54.416Z,40.10
2022-10-13T01:31:33.104Z,37.35
2022-10-13T01:34:55.524Z,46.03
2022-10-13T01:38:30.777Z,32.00
2022-10-13T01:41:41.331Z,20.55
2022-10-13T01:44:52.165Z,20.23
2022-10-13T01:47:56.942Z,19.30
2022-10-13T01:51:01.084Z,29.00
2022-10-13T01:54:04.787Z,21.52
2022-10-13T01:57:32.872Z,26.92
2022-10-13T02:00:44.970Z,27.80
2022-10-13T02:04:13.099Z,39.05
2022-10-13T02:07:23.360Z,25.13
2022-10-13T02:10:35.118Z,27.88
2022-10-13T02:13:42.921Z,27.75
2022-10-13T02:16:50.206Z,30.40
2022-10-13T02:19:55.299Z,34.55
2022-10-13T02:23:05.105Z,36.42
2022-10-13T02:26:09.863Z,37.25
2022-10-13T02:29:16.175Z,29.90
2022-10-13T02:32:20.407Z,33.20
2022-10-13T02:35:23.839Z,38.78
2022-10-13T02:38:27.144Z,27.85
2022-10-13T02:41:30.784Z,35.72
2022-10-13T02:44:33.909Z,35.20
2022-10-13T02:47:38.218Z,32.97
2022-10-13T02:50:41.903Z,38.90
2022-10-13T02:53:45.228Z,36.22
2022-10-13T02:56:48.885Z,46.47
2022-10-13T02:59:52.017Z,42.58
2022-10-13T03:02:56.704Z,42.90
2022-10-13T03:06:00.334Z,51.50
2022-10-13T03:09:05.122Z,43.55
2022-10-13T03:12:08.612Z,47.38
2022-10-13T03:15:13.383Z,55.05
2022-10-13T03:18:17.042Z,49.97
2022-10-13T03:21:20.783Z,43.17
2022-10-13T03:24:24.198Z,44.85
2022-10-13T03:27:27.163Z,42.50
2022-10-13T03:30:31.205Z,29.95
2022-10-13T03:33:34.588Z,35.20
2022-10-13T03:36:38.289Z,38.35
2022-10-13T03:39:41.977Z,34.70
2022-10-13T03:42:46.552Z,32.83
2022-10-13T03:46:01.336Z,35.78
2022-10-13T03:49:04.999Z,38.13
2022-10-13T03:52:09.149Z,27.40
2022-10-13T03:55:12.517Z,31.10
2022-10-13T03:58:16.224Z,31.23
2022-10-13T04:01:27.703Z,24.95
2022-10-13T04:04:30.658Z,24.70
2022-10-13T04:07:34.334Z,26.05
2022-10-13T04:10:42.884Z,29.35
2022-10-13T04:13:46.863Z,30.63
2022-10-13T04:16:50.381Z,26.75
2022-10-13T04:19:53.791Z,23.90
2022-10-13T04:22:57.413Z,23.42
2022-10-13T04:26:00.826Z,22.55
2022-10-13T04:29:06.350Z,23.63
2022-10-13T04:32:09.962Z,18.85
2022-10-13T04:35:13.632Z,12.73
2022-10-13T04:38:17.328Z,9.13
2022-10-13T04:41:21.377Z,12.18
2022-10-13T04:44:24.410Z,18.58
2022-10-13T04:47:27.663Z,20.25
2022-10-13T04:50:31.204Z,20.35
2022-10-13T04:53:37.793Z,15.63
2022-10-13T04:56:46.149Z,13.23
2022-10-13T04:59:49.916Z,15.57
2022-10-13T05:02:54.043Z,19.63
2022-10-13T05:05:58.605Z,16.73
2022-10-13T05:09:03.322Z,14.57
2022-10-13T05:12:07.313Z,12.57
2022-10-13T05:15:11.442Z,15.55
2022-10-13T05:18:14.845Z,12.27
2022-10-13T05:21:23.281Z,18.08
2022-10-13T05:24:37.947Z,12.75
2022-10-13T05:27:43.913Z,7.90
2022-10-13T05:30:51.098Z,14.97
2022-10-13T05:33:58.381Z,7.18
2022-10-13T05:40:09.953Z,5.97
2022-10-13T05:43:13.736Z,4.55
2022-10-13T05:46:17.698Z,5.05
2022-10-13T05:49:21.153Z,8.32
2022-10-13T05:52:25.696Z,7.68
2022-10-13T05:55:31.666Z,5.55
2022-10-13T05:58:44.080Z,5.78
2022-10-13T06:01:48.421Z,8.50
2022-10-13T06:04:54.343Z,6.50
2022-10-13T06:07:59.273Z,5.38
2022-10-13T06:11:03.905Z,6.40
2022-10-13T06:14:07.701Z,8.68
2022-10-13T06:17:11.503Z,6.47
2022-10-13T06:20:19.094Z,6.63
2022-10-13T06:23:22.154Z,7.68
2022-10-13T06:26:25.235Z,9.27
2022-10-13T06:29:29.037Z,11.20
2022-10-13T06:32:32.417Z,7.20
2022-10-13T06:35:37.105Z,6.95
2022-10-13T06:38:41.544Z,11.07
2022-10-13T06:41:44.554Z,9.05
2022-10-13T06:44:50.057Z,9.25
2022-10-13T06:47:55.450Z,9.68
2022-10-13T06:51:04.532Z,7.75
2022-10-13T06:54:08.164Z,5.40
2022-10-13T06:57:12.967Z,12.30
2022-10-13T07:00:16.569Z,9.27
2022-10-13T07:03:23.129Z,17.08
2022-10-13T07:06:26.450Z,6.30
2022-10-13T07:09:30.599Z,11.05
2022-10-13T07:12:35.455Z,8.40
2022-10-13T07:15:40.862Z,9.70
2022-10-13T07:18:44.816Z,9.02
2022-10-13T07:21:48.099Z,14.57
2022-10-13T07:24:51.716Z,8.55
2022-10-13T07:27:55.931Z,10.77
2022-10-13T07:30:58.882Z,11.68
2022-10-13T07:34:03.235Z,8.55
2022-10-13T07:37:06.868Z,9.20
2022-10-13T07:40:11.600Z,11.30
2022-10-13T07:43:15.238Z,17.35
2022-10-13T07:46:18.576Z,18.92
2022-10-13T07:49:21.974Z,15.45
2022-10-13T07:52:24.933Z,14.68
2022-10-13T07:55:28.322Z,10.82
2022-10-13T07:58:31.226Z,8.20
2022-10-13T08:01:35.055Z,9.02
2022-10-13T08:04:39.615Z,11.93
2022-10-13T08:07:42.982Z,20.30
2022-10-13T08:10:45.917Z,17.30
2022-10-13T08:13:51.278Z,15.20
2022-10-13T08:17:01.833Z,21.30
2022-10-13T08:20:07.610Z,14.50
2022-10-13T08:23:11.588Z,14.80
2022-10-13T08:26:25.690Z,18.05
2022-10-13T08:29:28.785Z,19.73
2022-10-13T08:32:32.525Z,21.90
2022-10-13T08:35:35.904Z,17.88
2022-10-13T08:38:39.221Z,25.58
2022-10-13T08:41:44.814Z,36.88
2022-10-13T08:45:28.764Z,34.20
2022-10-13T08:48:33.299Z,30.58
2022-10-13T08:51:37.480Z,28.77
2022-10-13T08:54:41.049Z,34.60
2022-10-13T08:57:45.525Z,36.70
2022-10-13T09:00:49.227Z,37.70
2022-10-13T09:04:37.219Z,42.17
2022-10-13T09:07:41.862Z,30.52
2022-10-13T09:10:52.790Z,35.22
2022-10-13T09:14:00.989Z,34.47
2022-10-13T09:17:23.201Z,37.72
2022-10-13T09:20:29.999Z,30.85
2022-10-13T09:23:32.946Z,19.48
2022-10-13T09:26:40.992Z,20.80
2022-10-13T09:32:49.772Z,26.48
2022-10-13T09:36:03.334Z,20.77
2022-10-13T09:39:12.245Z,15.48
2022-10-13T09:42:26.844Z,14.27
2022-10-13T09:48:39.077Z,19.02
2022-10-13T09:51:45.726Z,11.73
2022-10-13T09:55:01.794Z,13.90
2022-10-13T09:58:26.093Z,15.02
2022-10-13T10:01:38.020Z,13.13
2022-10-13T10:04:44.005Z,15.15
2022-10-13T10:07:48.686Z,18.30
2022-10-13T10:10:52.005Z,21.60
2022-10-13T10:13:56.982Z,15.85
2022-10-13T10:17:06.519Z,23.20
2022-10-13T10:20:47.441Z,17.98
2022-10-13T10:24:16.971Z,50.58
2022-10-13T10:27:30.684Z,57.45
2022-10-13T10:30:41.888Z,50.60
2022-10-13T10:34:20.690Z,75.30
2022-10-13T10:37:36.253Z,98.63
2022-10-13T10:40:51.416Z,86.90
2022-10-13T10:44:00.975Z,92.90
2022-10-13T10:47:27.985Z,85.90
2022-10-13T10:50:33.913Z,87.82
2022-10-13T10:54:14.749Z,86.55
2022-10-13T10:57:28.536Z,93.90
2022-10-13T11:00:39.941Z,84.15
2022-10-13T11:03:57.483Z,76.22
2022-10-13T11:07:01.153Z,85.50
2022-10-13T11:10:17.137Z,67.55
2022-10-13T11:13:21.831Z,66.15
2022-10-13T11:16:39.645Z,79.10
2022-10-13T11:19:49.945Z,93.20
2022-10-13T11:22:59.860Z,65.00
2022-10-13T11:26:30.776Z,85.28
2022-10-13T11:29:52.278Z,59.40
2022-10-13T11:32:57.893Z,52.28
2022-10-13T11:36:43.341Z,64.00
2022-10-13T11:40:10.184Z,32.40
2022-10-13T11:43:37.470Z,43.30
2022-10-13T11:46:59.278Z,40.35
2022-10-13T11:50:19.515Z,35.83
2022-10-13T11:53:43.866Z,36.17
2022-10-13T11:56:54.853Z,27.15
2022-10-13T11:59:58.718Z,32.47
2022-10-13T12:03:05.150Z,29.65
2022-10-13T12:06:37.943Z,31.05
2022-10-13T12:09:55.627Z,37.42
2022-10-13T12:13:00.817Z,22.60
2022-10-13T12:16:09.695Z,26.42
2022-10-13T12:19:27.368Z,25.25
2022-10-13T12:22:31.158Z,25.07
2022-10-13T12:25:34.185Z,26.02
2022-10-13T12:28:56.842Z,22.75
2022-10-13T12:32:00.977Z,24.60
2022-10-13T12:35:35.101Z,27.73
2022-10-13T12:38:41.309Z,22.73
2022-10-13T12:41:47.818Z,24.25
2022-10-13T12:44:51.592Z,22.20
2022-10-13T12:47:56.019Z,30.10
2022-10-13T12:51:23.529Z,31.13
2022-10-13T12:54:31.198Z,47.25
2022-10-13T12:57:39.051Z,48.50
2022-10-13T13:00:42.940Z,53.17
2022-10-13T13:03:47.344Z,37.50
2022-10-13T13:07:05.232Z,58.20
2022-10-13T13:10:21.016Z,49.88
2022-10-13T13:13:24.812Z,44.08
2022-10-13T13:16:28.094Z,31.75
2022-10-13T13:19:33.530Z,28.13
2022-10-13T13:25:39.516Z,31.30
2022-10-13T13:28:49.086Z,31.60
2022-10-13T13:31:52.304Z,44.22
2022-10-13T13:34:55.999Z,47.78
2022-10-13T13:37:59.689Z,71.97
2022-10-13T13:41:04.148Z,53.58
2022-10-13T13:44:07.276Z,65.22
2022-10-13T13:47:20.669Z,57.75
2022-10-13T13:50:38.077Z,68.32
2022-10-13T13:53:41.713Z,50.72
2022-10-13T13:56:45.189Z,62.95
2022-10-13T13:59:49.755Z,56.00
2022-10-13T14:02:53.364Z,45.13
2022-10-13T14:05:57.585Z,37.28
2022-10-13T14:09:03.452Z,32.03
2022-10-13T14:12:08.444Z,28.40
2022-10-13T14:15:12.764Z,19.35
2022-10-13T14:18:17.094Z,26.35
2022-10-13T14:21:21.291Z,17.48
2022-10-13T14:24:25.660Z,13.40
2022-10-13T14:27:29.259Z,23.65
2022-10-13T14:30:36.234Z,26.67
2022-10-13T14:33:40.141Z,18.27
2022-10-13T14:36:44.478Z,20.48
2022-10-13T14:39:47.686Z,17.77
2022-10-13T14:42:51.901Z,19.95
2022-10-13T14:45:56.524Z,22.80
2022-10-13T14:49:01.214Z,19.95
2022-10-13T14:52:05.879Z,18.65
2022-10-13T14:55:10.771Z,29.27
2022-10-13T14:58:14.749Z,22.55
2022-10-13T15:01:20.663Z,25.88
2022-10-13T15:04:24.142Z,29.13
2022-10-13T15:07:29.242Z,23.92
2022-10-13T15:10:33.108Z,27.20
2022-10-13T15:13:37.882Z,35.33
2022-10-13T15:16:41.128Z,51.67
2022-10-13T15:19:44.383Z,39.03
2022-10-13T15:22:48.625Z,71.28
2022-10-13T15:26:15.158Z,54.42
2022-10-13T15:29:18.152Z,62.92
2022-10-13T15:32:22.494Z,60.30
2022-10-13T15:35:31.790Z,70.28
2022-10-13T15:38:35.448Z,89.75
2022-10-13T15:41:39.091Z,89.05
2022-10-13T15:45:13.342Z,115.40
2022-10-13T15:48:08.600Z,149.88
2022-10-13T15:51:24.109Z,112.35
2022-10-13T15:54:27.237Z,63.13
2022-10-13T15:57:32.560Z,77.53
2022-10-13T16:00:36.164Z,75.18
2022-10-13T16:03:40.376Z,88.60
2022-10-13T16:06:44.441Z,90.47
2022-10-13T16:09:48.162Z,98.70
2022-10-13T16:12:52.062Z,83.50
2022-10-13T16:16:00.228Z,86.68
2022-10-13T16:19:04.320Z,81.07
2022-10-13T16:22:08.624Z,73.85
2022-10-13T16:25:12.834Z,67.75
2022-10-13T16:28:16.510Z,67.07
2022-10-13T16:31:20.427Z,60.33
2022-10-13T16:34:24.120Z,47.17
2022-10-13T16:37:28.291Z,52.67
2022-10-13T16:40:31.749Z,50.88
2022-10-13T16:43:35.646Z,50.08
2022-10-13T16:46:39.341Z,43.03
2022-10-13T16:49:43.733Z,55.05
2022-10-13T16:52:48.442Z,33.13
2022-10-13T16:55:52.680Z,36.08
2022-10-13T16:58:59.421Z,31.92
2022-10-13T17:02:04.258Z,33.55
2022-10-13T17:05:08.230Z,30.73
2022-10-13T17:08:12.606Z,28.27
2022-10-13T17:11:24.606Z,25.25
2022-10-13T17:14:28.011Z,29.13
2022-10-13T17:17:32.382Z,26.55
2022-10-13T17:20:36.452Z,27.75
2022-10-13T17:23:41.720Z,29.63
2022-10-13T17:26:50.755Z,26.75
2022-10-13T17:29:55.411Z,30.73
2022-10-13T17:33:03.471Z,35.05
2022-10-13T17:36:20.000Z,56.67
2022-10-13T17:39:23.834Z,49.47
2022-10-13T17:42:29.864Z,44.65
2022-10-13T17:45:33.231Z,42.30
2022-10-13T17:48:37.232Z,41.85
2022-10-13T17:51:43.204Z,36.67
2022-10-13T17:54:46.594Z,25.70
2022-10-13T17:57:50.567Z,33.65
2022-10-13T18:01:12.327Z,28.15
2022-10-13T18:04:19.553Z,20.98
2022-10-13T18:07:23.215Z,20.52
2022-10-13T18:10:31.353Z,26.25
2022-10-13T18:13:46.257Z,24.70
2022-10-13T18:16:54.515Z,23.67
2022-10-13T18:19:58.502Z,20.45
2022-10-13T18:23:03.121Z,21.65
2022-10-13T18:26:09.074Z,23.65
2022-10-13T18:29:13.531Z,16.15
2022-10-13T18:32:17.420Z,16.90
2022-10-13T18:35:21.829Z,16.58
2022-10-13T18:38:26.021Z,14.75
2022-10-13T18:41:29.980Z,17.75
2022-10-13T18:44:33.983Z,23.42
2022-10-13T18:47:37.917Z,16.52
2022-10-13T18:50:42.110Z,16.27
2022-10-13T18:53:48.610Z,17.05
2022-10-13T18:56:53.218Z,16.50
2022-10-13T18:59:57.650Z,10.50
2022-10-13T19:06:09.878Z,15.30
2022-10-13T19:09:16.328Z,24.30
2022-10-13T19:12:19.452Z,19.42
2022-10-13T19:15:23.426Z,22.65
2022-10-13T19:18:27.809Z,10.25
2022-10-13T19:21:33.448Z,14.38
2022-10-13T19:24:37.755Z,16.85
2022-10-13T19:27:40.965Z,9.07
2022-10-13T19:30:45.060Z,12.38
2022-10-13T19:33:53.051Z,17.63
2022-10-13T19:36:59.870Z,12.13
2022-10-13T19:40:04.898Z,12.95
2022-10-13T19:43:08.738Z,11.02
2022-10-13T19:46:12.973Z,13.43
2022-10-13T19:49:18.597Z,10.85
2022-10-13T19:52:24.075Z,11.30
2022-10-13T19:55:28.310Z,15.90
2022-10-13T19:58:31.784Z,13.30
2022-10-13T20:01:41.577Z,14.93
2022-10-13T20:04:51.294Z,19.73
2022-10-13T20:07:58.876Z,8.00
2022-10-13T20:11:20.822Z,14.70
2022-10-13T20:14:27.759Z,10.48
2022-10-13T20:17:31.845Z,9.90
2022-10-13T20:20:37.009Z,9.07
2022-10-13T20:23:43.608Z,10.75
2022-10-13T20:26:47.118Z,12.30
2022-10-13T20:29:51.705Z,11.30
2022-10-13T20:32:57.216Z,9.60
2022-10-13T20:36:04.189Z,9.95
2022-10-13T20:39:09.750Z,8.70
2022-10-13T20:42:14.908Z,6.35
2022-10-13T20:45:18.732Z,6.03
2022-10-13T20:48:22.604Z,9.32
2022-10-13T20:51:26.853Z,13.65
2022-10-13T20:54:31.000Z,11.98
2022-10-13T20:57:34.904Z,11.13
2022-10-13T21:00:44.316Z,16.25
2022-10-13T21:03:51.770Z,14.02
2022-10-13T21:06:56.469Z,10.77
2022-10-13T21:10:00.151Z,8.55
2022-10-13T21:13:05.419Z,11.48
2022-10-13T21:16:12.334Z,12.93
2022-10-13T21:19:16.704Z,7.43
2022-10-13T21:22:20.671Z,9.35
2022-10-13T21:25:23.939Z,12.40
2022-10-13T21:28:30.994Z,9.63
2022-10-13T21:31:34.630Z,7.93
2022-10-13T21:34:38.982Z,9.48
2022-10-13T21:37:42.194Z,7.28
2022-10-13T21:40:45.398Z,6.15
2022-10-13T21:43:50.911Z,6.20
2022-10-13T21:46:56.908Z,6.68
2022-10-13T21:50:01.685Z,8.02
2022-10-13T21:53:06.476Z,4.75
2022-10-13T21:56:12.403Z,8.32
2022-10-13T21:59:16.878Z,8.27
2022-10-13T22:02:21.593Z,10.10
2022-10-13T22:05:25.953Z,9.82
2022-10-13T22:08:38.708Z,9.15
2022-10-13T22:11:57.213Z,14.57
2022-10-13T22:15:01.617Z,13.32
2022-10-13T22:18:05.800Z,16.27
2022-10-13T22:21:13.940Z,16.95
2022-10-13T22:24:20.779Z,11.95
2022-10-13T22:27:24.645Z,12.45
2022-10-13T22:30:28.845Z,13.20
2022-10-13T22:33:34.645Z,11.23
2022-10-13T22:36:44.451Z,9.40
2022-10-13T22:39:48.918Z,8.98
2022-10-13T22:42:52.908Z,8.15
2022-10-13T22:45:56.270Z,9.95
2022-10-13T22:49:00.909Z,14.18
2022-10-13T22:52:05.156Z,14.10
2022-10-13T22:55:09.058Z,9.23
2022-10-13T22:58:13.563Z,11.02
2022-10-13T23:01:18.042Z,10.70
2022-10-13T23:04:21.291Z,14.13
2022-10-13T23:07:25.265Z,6.90
2022-10-13T23:10:29.001Z,5.80
2022-10-13T23:13:33.113Z,4.72
2022-10-13T23:16:36.767Z,6.40
2022-10-13T23:19:40.813Z,10.88
2022-10-13T23:22:44.613Z,6.55
2022-10-13T23:25:47.768Z,6.85
2022-10-13T23:28:51.593Z,5.53
2022-10-13T23:31:55.380Z,5.32
2022-10-13T23:34:59.279Z,3.38
2022-10-13T23:38:08.237Z,1.70
2022-10-13T23:41:14.844Z,4.78
2022-10-13T23:44:18.216Z,4.82
2022-10-13T23:47:24.042Z,1.42
2022-10-13T23:50:27.483Z,4.60
2022-10-13T23:53:35.661Z,3.33
2022-10-13T23:56:39.818Z,1.58
2022-10-13T23:59:44.394Z,3.95
